Aérodrome :
LOGIN :

S'inscrire | Disclaimer

   EN    FR    IT 

 










Légende :    VFR   VFR Marginal   IFR   IFR Intensif   IFR Très Intensif
Visi : 
Plafond : 
>= 8 km
>= 3000ft
5 à 8 km
1000 à 3000 ft
1500m à 5 km
500 à 1000 ft
800 à 1500m
200 à 500 ft
< 800m
< 200 ft
Symboles :   Orages  Brouillard  Fortes neiges  Fortes précipitations  Vent > 20 kt
SIGMETs :   Divers  Orages  Givrage  Turbulence  Onde Orograph.  Cendres Volcan.






- Altitude de l'aérodrome : 33 ft
- Code IATA : MHZ


EGUN - RAF Mildenhall

DERNIER METAR :
  • 021656Z AUTO 24008KT 9999 BKN060 21/10 A2999 RMK AO2 SLP159 T02050103 $

METARs EXPIRÉS :
  • 021556Z AUTO 25013KT 9999 SCT049 BKN065 21/10 A2999 RMK AO2 SLP159 T02120104 $
  • 021456Z AUTO 23010KT 9999 FEW049 FEW060 SCT075 21/11 A3000 RMK AO2 SLP162 T02100105 57006 $
  • 020256Z AUTO 20009KT 9999 CLR 12/11 A3005 RMK AO2 SLP179 T01170114 57005 $

Prévision TAF périmée.



MET'MAP, la Météo Aéronautique d'un coup d'oeil ! - Copyright ORBIFLY Décembre 2007 - Disclaimer

ORBIFLY MET'MAP TEAM :

Programmation & Développement : Alexandra Zaïnal
Sur une idée originale de : Baudouin d'Aumeries
Soutien technique & logistique : Manuel Goepfert
Assistance : Marc-Olivier Méhu




SOURCES & CREDITS :

   NOAA